createdAt,value
2018-01-14T00:00:01.994Z,17.17
2018-01-14T00:02:29.474Z,16.97
2018-01-14T00:04:56.978Z,19.00
2018-01-14T00:07:24.537Z,17.93
2018-01-14T00:09:52.028Z,17.60
2018-01-14T00:12:20.274Z,17.60
2018-01-14T00:14:47.760Z,17.37
2018-01-14T00:17:15.227Z,17.70
2018-01-14T00:19:42.804Z,16.83
2018-01-14T00:22:10.373Z,18.33
2018-01-14T00:24:37.848Z,17.77
2018-01-14T00:27:05.472Z,18.47
2018-01-14T00:29:33.042Z,16.63
2018-01-14T00:32:00.555Z,18.77
2018-01-14T00:34:28.130Z,17.67
2018-01-14T00:36:55.700Z,18.40
2018-01-14T00:39:23.273Z,16.20
2018-01-14T00:41:51.555Z,18.40
2018-01-14T00:44:19.041Z,18.83
2018-01-14T00:46:46.529Z,16.40
2018-01-14T00:49:14.780Z,17.30
2018-01-14T00:51:42.259Z,16.47
2018-01-14T00:54:09.825Z,14.73
2018-01-14T00:56:37.417Z,17.10
2018-01-14T00:59:05.684Z,16.30
2018-01-14T01:01:34.691Z,16.57
2018-01-14T01:04:02.260Z,17.20
2018-01-14T01:06:29.819Z,16.47
2018-01-14T01:08:57.292Z,18.40
2018-01-14T01:11:24.870Z,17.80
2018-01-14T01:13:52.437Z,17.00
2018-01-14T01:16:19.915Z,17.37
2018-01-14T01:18:48.918Z,16.40
2018-01-14T01:21:16.494Z,15.60
2018-01-14T01:23:44.062Z,15.77
2018-01-14T01:26:11.544Z,16.60
2018-01-14T01:28:39.817Z,17.07
2018-01-14T01:31:08.098Z,16.23
2018-01-14T01:33:35.675Z,17.53
2018-01-14T01:36:03.244Z,16.23
2018-01-14T01:38:31.494Z,16.20
2018-01-14T01:40:59.004Z,17.50
2018-01-14T01:43:26.496Z,16.13
2018-01-14T01:45:54.735Z,17.00
2018-01-14T01:48:22.205Z,16.13
2018-01-14T01:50:49.677Z,15.90
2018-01-14T01:53:17.268Z,16.17
2018-01-14T01:55:44.740Z,15.40
2018-01-14T01:58:12.318Z,15.23
2018-01-14T02:00:39.888Z,15.03
2018-01-14T02:03:08.123Z,15.33
2018-01-14T02:05:35.600Z,15.10
2018-01-14T02:08:03.101Z,16.43
2018-01-14T02:10:30.571Z,15.07
2018-01-14T02:12:58.145Z,15.20
2018-01-14T02:15:25.696Z,15.13
2018-01-14T02:17:53.179Z,15.20
2018-01-14T02:20:20.764Z,14.60
2018-01-14T02:22:48.319Z,15.50
2018-01-14T02:25:16.561Z,14.57
2018-01-14T02:27:44.085Z,14.73
2018-01-14T02:30:11.651Z,14.27
2018-01-14T02:32:39.222Z,14.30
2018-01-14T02:35:06.688Z,15.17
2018-01-14T02:37:34.159Z,14.27
2018-01-14T02:40:01.631Z,13.70
2018-01-14T02:42:29.107Z,13.83
2018-01-14T02:44:56.667Z,12.33
2018-01-14T02:47:24.998Z,13.03
2018-01-14T02:49:52.471Z,12.70
2018-01-14T02:52:20.004Z,13.47
2018-01-14T02:54:47.479Z,12.33
2018-01-14T02:57:14.947Z,11.60
2018-01-14T02:59:42.511Z,11.73
2018-01-14T03:02:10.080Z,10.60
2018-01-14T03:04:37.655Z,11.97
2018-01-14T03:07:05.199Z,10.57
2018-01-14T03:09:32.672Z,10.47
2018-01-14T03:12:00.146Z,11.07
2018-01-14T03:14:27.619Z,10.73
2018-01-14T03:16:55.096Z,10.93
2018-01-14T03:19:24.078Z,11.17
2018-01-14T03:21:51.565Z,11.07
2018-01-14T03:24:19.035Z,10.47
2018-01-14T03:26:46.508Z,9.70
2018-01-14T03:29:14.077Z,10.90
2018-01-14T03:31:41.619Z,9.43
2018-01-14T03:34:09.091Z,10.03
2018-01-14T03:36:36.597Z,9.37
2018-01-14T03:39:04.884Z,11.03
2018-01-14T03:41:33.165Z,9.30
2018-01-14T03:44:00.632Z,10.90
2018-01-14T03:46:28.209Z,9.80
2018-01-14T03:48:55.787Z,11.17
2018-01-14T03:51:23.355Z,9.97
2018-01-14T03:53:50.928Z,10.07
2018-01-14T03:56:18.404Z,10.47
2018-01-14T03:58:46.851Z,10.67
2018-01-14T04:01:14.321Z,10.67
2018-01-14T04:03:41.787Z,10.23
2018-01-14T04:06:09.255Z,10.20
2018-01-14T04:08:36.769Z,10.00
2018-01-14T04:11:04.331Z,10.10
2018-01-14T04:13:31.800Z,10.37
2018-01-14T04:15:59.273Z,9.77
2018-01-14T04:18:26.836Z,10.37
2018-01-14T04:20:54.309Z,10.43
2018-01-14T04:23:21.776Z,9.57
2018-01-14T04:25:49.244Z,10.87
2018-01-14T04:28:16.819Z,9.70
2018-01-14T04:30:45.053Z,9.93
2018-01-14T04:33:12.575Z,9.63
2018-01-14T04:35:40.041Z,10.87
2018-01-14T04:38:07.511Z,11.93
2018-01-14T04:40:34.982Z,10.60
2018-01-14T04:43:02.463Z,11.23
2018-01-14T04:45:30.705Z,10.73
2018-01-14T04:47:58.213Z,10.90
2018-01-14T04:50:25.779Z,9.97
2018-01-14T04:52:53.249Z,10.73
2018-01-14T04:55:20.817Z,9.17
2018-01-14T04:57:48.288Z,9.13
2018-01-14T05:00:15.760Z,9.83
2018-01-14T05:02:43.240Z,10.23
2018-01-14T05:05:11.479Z,11.17
2018-01-14T05:07:38.983Z,11.07
2018-01-14T05:10:06.556Z,9.97
2018-01-14T05:12:34.129Z,8.73
2018-01-14T05:15:02.185Z,10.47
2018-01-14T05:17:29.775Z,9.53
2018-01-14T05:19:57.345Z,10.17
2018-01-14T05:22:24.919Z,10.50
2018-01-14T05:24:52.487Z,10.23
2018-01-14T05:27:20.064Z,10.13
2018-01-14T05:29:47.631Z,9.17
2018-01-14T05:32:15.095Z,8.93
2018-01-14T05:34:42.563Z,8.53
2018-01-14T05:37:10.031Z,9.50
2018-01-14T05:39:37.508Z,8.83
2018-01-14T05:42:06.479Z,9.13
2018-01-14T05:44:33.996Z,9.70
2018-01-14T05:47:02.267Z,9.93
2018-01-14T05:49:29.739Z,9.40
2018-01-14T05:51:57.200Z,10.33
2018-01-14T05:54:24.680Z,9.93
2018-01-14T05:56:52.515Z,9.90
2018-01-14T05:59:19.981Z,9.57
2018-01-14T06:01:47.486Z,8.83
2018-01-14T06:04:15.070Z,10.03
2018-01-14T06:06:42.592Z,10.27
2018-01-14T06:09:10.101Z,10.07
2018-01-14T06:11:37.683Z,9.13
2018-01-14T06:14:05.165Z,11.07
2018-01-14T06:16:33.437Z,10.07
2018-01-14T06:19:01.003Z,11.80
2018-01-14T06:21:28.484Z,10.40
2018-01-14T06:23:55.953Z,9.37
2018-01-14T06:26:23.424Z,9.47
2018-01-14T06:28:50.984Z,10.43
2018-01-14T06:31:18.452Z,10.87
2018-01-14T06:33:45.927Z,9.00
2018-01-14T06:36:13.497Z,10.97
2018-01-14T06:38:41.056Z,9.53
2018-01-14T06:41:08.636Z,10.37
2018-01-14T06:43:36.876Z,8.57
2018-01-14T06:46:04.352Z,10.37
2018-01-14T06:48:31.856Z,10.53
2018-01-14T06:50:59.334Z,9.60
2018-01-14T06:53:26.897Z,9.00
2018-01-14T06:55:54.363Z,9.43
2018-01-14T06:58:21.938Z,10.33
2018-01-14T07:00:50.076Z,10.10
2018-01-14T07:03:17.597Z,8.70
2018-01-14T07:05:45.167Z,11.23
2018-01-14T07:08:12.631Z,9.87
2018-01-14T07:10:41.212Z,11.50
2018-01-14T07:13:08.713Z,12.70
2018-01-14T07:15:36.965Z,12.00
2018-01-14T07:18:04.455Z,12.03
2018-01-14T07:20:31.968Z,13.17
2018-01-14T07:22:59.440Z,11.03
2018-01-14T07:25:26.966Z,11.17
2018-01-14T07:27:54.533Z,9.93
2018-01-14T07:30:22.209Z,10.67
2018-01-14T07:32:49.780Z,10.23
2018-01-14T07:35:17.252Z,10.97
2018-01-14T07:37:44.730Z,14.23
2018-01-14T07:40:12.228Z,12.60
2018-01-14T07:42:39.703Z,13.10
2018-01-14T07:45:07.171Z,13.33
2018-01-14T07:47:34.780Z,14.90
2018-01-14T07:50:02.357Z,14.67
2018-01-14T07:52:29.924Z,14.17
2018-01-14T07:54:57.652Z,13.20
2018-01-14T07:57:25.315Z,17.73
2018-01-14T07:59:53.820Z,15.20
2018-01-14T08:02:21.319Z,11.90
2018-01-14T08:04:51.212Z,16.37
2018-01-14T08:07:22.980Z,18.83
2018-01-14T08:09:50.964Z,21.83
2018-01-14T08:12:19.967Z,24.40
2018-01-14T08:14:48.761Z,22.50
2018-01-14T08:17:16.247Z,19.90
2018-01-14T08:19:43.708Z,19.73
2018-01-14T08:22:11.180Z,16.47
2018-01-14T08:24:38.799Z,15.37
2018-01-14T08:27:06.281Z,13.30
2018-01-14T08:29:33.752Z,11.43
2018-01-14T08:32:01.228Z,11.97
2018-01-14T08:34:29.516Z,11.77
2018-01-14T08:36:58.818Z,11.63
2018-01-14T08:39:27.264Z,15.20
2018-01-14T08:41:54.797Z,12.03
2018-01-14T08:44:24.062Z,12.77
2018-01-14T08:46:51.903Z,12.43
2018-01-14T08:49:19.438Z,11.37
2018-01-14T08:51:47.146Z,11.87
2018-01-14T08:54:14.649Z,12.30
2018-01-14T08:56:42.769Z,14.60
2018-01-14T08:59:11.068Z,11.03
2018-01-14T09:01:45.320Z,13.20
2018-01-14T09:04:12.825Z,11.77
2018-01-14T09:06:40.337Z,11.10
2018-01-14T09:09:07.896Z,12.10
2018-01-14T09:11:36.159Z,11.53
2018-01-14T09:14:03.735Z,12.50
2018-01-14T09:16:32.021Z,10.97
2018-01-14T09:19:00.245Z,10.83
2018-01-14T09:21:28.523Z,11.80
2018-01-14T09:23:56.788Z,10.80
2018-01-14T09:26:24.300Z,10.97
2018-01-14T09:28:52.710Z,10.17
2018-01-14T09:31:20.373Z,11.07
2018-01-14T09:33:48.251Z,10.07
2018-01-14T09:36:16.130Z,11.73
2018-01-14T09:38:44.009Z,9.50
2018-01-14T09:41:12.093Z,10.53
2018-01-14T09:43:39.825Z,9.17
2018-01-14T09:46:08.286Z,9.33
2018-01-14T09:48:35.919Z,9.60
2018-01-14T09:51:03.722Z,10.03
2018-01-14T09:53:32.018Z,8.93
2018-01-14T09:55:59.708Z,9.23
2018-01-14T09:58:27.659Z,8.27
2018-01-14T10:00:57.424Z,8.63
2018-01-14T10:03:25.249Z,8.20
2018-01-14T10:05:53.768Z,9.50
2018-01-14T10:08:21.626Z,8.37
2018-01-14T10:10:49.130Z,8.03
2018-01-14T10:13:16.613Z,8.93
2018-01-14T10:15:45.623Z,8.80
2018-01-14T10:18:13.112Z,7.90
2018-01-14T10:20:41.409Z,8.43
2018-01-14T10:23:08.886Z,8.83
2018-01-14T10:25:37.240Z,8.67
2018-01-14T10:28:05.503Z,7.63
2018-01-14T10:30:32.989Z,7.83
2018-01-14T10:33:00.568Z,7.87
2018-01-14T10:35:30.793Z,7.63
2018-01-14T10:37:58.316Z,8.00
2018-01-14T10:40:25.900Z,7.00
2018-01-14T10:42:53.392Z,6.77
2018-01-14T10:45:20.917Z,7.40
2018-01-14T10:47:49.189Z,7.50
2018-01-14T10:50:16.666Z,8.00
2018-01-14T10:52:44.901Z,7.33
2018-01-14T10:55:12.500Z,7.27
2018-01-14T10:57:39.995Z,7.33
2018-01-14T11:00:07.660Z,7.93
2018-01-14T11:02:35.131Z,8.07
2018-01-14T11:05:02.611Z,8.43
2018-01-14T11:07:31.290Z,9.70
2018-01-14T11:09:58.768Z,8.53
2018-01-14T11:12:26.288Z,7.57
2018-01-14T11:14:53.748Z,7.30
2018-01-14T11:17:21.269Z,7.47
2018-01-14T11:19:49.614Z,8.13
2018-01-14T11:22:17.047Z,7.47
2018-01-14T11:24:45.320Z,7.30
2018-01-14T11:27:12.892Z,7.80
2018-01-14T11:29:43.896Z,7.90
2018-01-14T11:32:11.365Z,7.17
2018-01-14T11:34:38.855Z,6.80
2018-01-14T11:37:09.424Z,6.63
2018-01-14T11:39:37.019Z,6.13
2018-01-14T11:42:05.435Z,6.97
2018-01-14T11:44:33.021Z,7.50
2018-01-14T11:47:00.493Z,7.10
2018-01-14T11:49:27.989Z,7.33
2018-01-14T11:51:55.706Z,6.97
2018-01-14T11:54:23.622Z,7.47
2018-01-14T11:56:51.563Z,7.60
2018-01-14T11:59:19.341Z,7.70
2018-01-14T12:01:47.119Z,7.77
2018-01-14T12:04:14.833Z,7.47
2018-01-14T12:06:42.415Z,7.10
2018-01-14T12:09:10.141Z,7.40
2018-01-14T12:11:37.850Z,8.37
2018-01-14T12:14:05.563Z,8.33
2018-01-14T12:16:33.366Z,10.40
2018-01-14T12:19:01.142Z,10.73
2018-01-14T12:21:29.044Z,7.70
2018-01-14T12:23:56.795Z,8.20
2018-01-14T12:26:24.510Z,7.83
2018-01-14T12:28:52.347Z,7.57
2018-01-14T12:31:20.126Z,6.57
2018-01-14T12:37:01.249Z,7.00
2018-01-14T12:39:29.135Z,6.80
2018-01-14T12:41:56.912Z,6.87
2018-01-14T12:44:24.590Z,8.23
2018-01-14T12:49:04.572Z,8.77
2018-01-14T12:51:32.350Z,7.73
2018-01-14T12:54:00.946Z,7.47
2018-01-14T12:56:28.615Z,7.50
2018-01-14T12:58:56.392Z,7.40
2018-01-14T13:01:24.500Z,8.03
2018-01-14T13:03:52.356Z,7.43
2018-01-14T13:06:20.129Z,7.30
2018-01-14T13:08:47.815Z,6.33
2018-01-14T13:11:15.709Z,7.73
2018-01-14T13:13:43.325Z,6.67
2018-01-14T13:16:11.856Z,8.50
2018-01-14T13:18:39.676Z,8.73
2018-01-14T13:21:08.220Z,7.27
2018-01-14T13:23:35.998Z,6.23
2018-01-14T13:26:03.875Z,7.23
2018-01-14T13:28:31.652Z,7.37
2018-01-14T13:30:59.324Z,6.57
2018-01-14T13:33:27.044Z,6.90
2018-01-14T13:35:54.534Z,6.73
2018-01-14T13:38:22.087Z,6.77
2018-01-14T13:40:49.816Z,6.97
2018-01-14T13:43:20.142Z,8.33
2018-01-14T13:45:47.926Z,8.00
2018-01-14T13:48:15.424Z,6.60
2018-01-14T13:50:42.888Z,7.23
2018-01-14T13:53:10.397Z,8.70
2018-01-14T13:55:38.665Z,6.70
2018-01-14T13:58:06.278Z,8.33
2018-01-14T14:00:34.583Z,9.53
2018-01-14T14:03:02.121Z,9.97
2018-01-14T14:05:29.613Z,10.97
2018-01-14T14:07:57.852Z,9.13
2018-01-14T14:10:25.463Z,8.30
2018-01-14T14:12:53.758Z,7.93
2018-01-14T14:15:22.003Z,8.13
2018-01-14T14:17:49.498Z,9.30
2018-01-14T14:20:17.064Z,8.40
2018-01-14T14:22:44.633Z,7.93
2018-01-14T14:25:12.109Z,8.83
2018-01-14T14:27:39.594Z,10.47
2018-01-14T14:30:07.997Z,10.00
2018-01-14T14:32:36.274Z,8.50
2018-01-14T14:35:04.513Z,6.37
2018-01-14T14:37:33.036Z,7.60
2018-01-14T14:40:00.557Z,13.53
2018-01-14T14:42:28.078Z,12.87
2018-01-14T14:44:55.645Z,13.47
2018-01-14T14:47:23.178Z,19.03
2018-01-14T14:49:50.659Z,17.97
2018-01-14T14:52:18.134Z,16.70
2018-01-14T14:54:45.646Z,18.13
2018-01-14T14:57:14.131Z,14.63
2018-01-14T14:59:41.640Z,8.63
2018-01-14T15:02:09.153Z,8.37
2018-01-14T15:04:36.632Z,10.40
2018-01-14T15:07:04.212Z,11.48
2018-01-14T15:09:32.587Z,9.10
2018-01-14T15:12:00.052Z,7.63
2018-01-14T15:14:29.167Z,7.90
2018-01-14T15:16:56.740Z,7.83
2018-01-14T15:19:24.214Z,8.50
2018-01-14T15:21:57.742Z,8.90
2018-01-14T15:24:26.559Z,7.37
2018-01-14T15:29:31.753Z,9.47
2018-01-14T15:31:59.550Z,9.90
2018-01-14T15:34:27.184Z,9.57
2018-01-14T15:36:54.707Z,15.97
2018-01-14T15:39:22.252Z,30.20
2018-01-14T15:41:50.947Z,39.97
2018-01-14T15:44:18.449Z,30.10
2018-01-14T15:46:47.389Z,12.67
2018-01-14T15:49:14.905Z,10.33
2018-01-14T15:51:42.410Z,7.50
2018-01-14T15:54:10.720Z,7.70
2018-01-14T15:56:38.273Z,9.83
2018-01-14T15:59:05.761Z,9.60
2018-01-14T16:01:33.241Z,9.57
2018-01-14T16:04:00.769Z,8.43
2018-01-14T16:06:29.057Z,7.50
2018-01-14T16:08:56.684Z,8.07
2018-01-14T16:11:25.208Z,8.10
2018-01-14T16:13:53.560Z,9.27
2018-01-14T16:16:21.103Z,7.77
2018-01-14T16:18:49.466Z,7.77
2018-01-14T16:21:16.952Z,7.57
2018-01-14T16:23:45.187Z,6.93
2018-01-14T16:26:12.726Z,7.77
2018-01-14T16:28:40.211Z,11.63
2018-01-14T16:31:08.007Z,12.60
2018-01-14T16:33:35.523Z,7.63
2018-01-14T16:36:03.077Z,7.60
2018-01-14T16:38:30.559Z,6.43
2018-01-14T16:40:58.821Z,7.20
2018-01-14T16:43:26.317Z,8.27
2018-01-14T16:45:53.878Z,8.30
2018-01-14T16:48:21.403Z,9.90
2018-01-14T16:50:48.928Z,10.27
2018-01-14T16:53:16.495Z,8.10
2018-01-14T16:55:45.491Z,10.17
2018-01-14T16:58:13.059Z,8.73
2018-01-14T17:00:40.634Z,10.40
2018-01-14T17:03:08.210Z,12.00
2018-01-14T17:05:36.544Z,11.37
2018-01-14T17:08:04.412Z,9.50
2018-01-14T17:10:31.986Z,8.63
2018-01-14T17:12:59.465Z,9.00
2018-01-14T17:15:26.965Z,9.03
2018-01-14T17:17:54.440Z,9.40
2018-01-14T17:20:22.199Z,9.97
2018-01-14T17:22:49.774Z,9.77
2018-01-14T17:25:17.353Z,9.70
2018-01-14T17:27:44.851Z,10.20
2018-01-14T17:30:13.509Z,10.10
2018-01-14T17:32:41.286Z,9.50
2018-01-14T17:35:08.793Z,8.97
2018-01-14T17:37:36.609Z,8.33
2018-01-14T17:40:04.108Z,8.43
2018-01-14T17:42:31.579Z,9.30
2018-01-14T17:44:59.902Z,9.30
2018-01-14T17:47:28.226Z,10.93
2018-01-14T17:49:55.802Z,9.37
2018-01-14T17:52:23.500Z,12.23
2018-01-14T17:54:50.981Z,14.43
2018-01-14T17:57:18.493Z,18.13
2018-01-14T17:59:46.769Z,20.40
2018-01-14T18:02:15.021Z,21.87
2018-01-14T18:04:42.896Z,19.57
2018-01-14T18:07:10.366Z,17.53
2018-01-14T18:09:38.131Z,16.30
2018-01-14T18:12:05.644Z,14.77
2018-01-14T18:14:33.167Z,14.87
2018-01-14T18:17:03.092Z,14.13
2018-01-14T18:19:30.607Z,13.87
2018-01-14T18:21:58.402Z,16.87
2018-01-14T18:24:26.688Z,17.10
2018-01-14T18:26:55.327Z,15.60
2018-01-14T18:29:22.832Z,12.90
2018-01-14T18:31:50.333Z,13.57
2018-01-14T18:34:17.985Z,12.93
2018-01-14T18:36:46.283Z,12.07
2018-01-14T18:39:14.538Z,15.87
2018-01-14T18:41:42.855Z,15.70
2018-01-14T18:44:11.367Z,16.13
2018-01-14T18:46:39.178Z,14.30
2018-01-14T18:49:06.664Z,13.43
2018-01-14T18:51:34.156Z,14.87
2018-01-14T18:54:01.768Z,15.30
2018-01-14T18:56:29.305Z,15.70
2018-01-14T18:58:56.874Z,16.10
2018-01-14T19:01:25.221Z,20.00
2018-01-14T19:03:52.767Z,19.47
2018-01-14T19:06:20.341Z,28.50
2018-01-14T19:08:48.576Z,25.93
2018-01-14T19:11:16.137Z,25.37
2018-01-14T19:13:43.657Z,21.93
2018-01-14T19:16:11.954Z,21.53
2018-01-14T19:18:39.545Z,23.33
2018-01-14T19:21:07.079Z,22.50
2018-01-14T19:23:35.356Z,22.77
2018-01-14T19:26:02.926Z,22.60
2018-01-14T19:28:30.413Z,22.00
2018-01-14T19:30:57.959Z,18.50
2018-01-14T19:33:25.477Z,18.73
2018-01-14T19:35:53.003Z,16.23
2018-01-14T19:38:20.621Z,16.10
2018-01-14T19:40:48.156Z,17.43
2018-01-14T19:43:16.456Z,18.43
2018-01-14T19:45:44.737Z,22.10
2018-01-14T19:48:13.067Z,24.43
2018-01-14T19:50:40.639Z,20.20
2018-01-14T19:53:08.175Z,22.23
2018-01-14T19:55:36.493Z,19.33
2018-01-14T19:58:04.032Z,20.80
2018-01-14T20:00:32.327Z,23.60
2018-01-14T20:03:00.617Z,19.63
2018-01-14T20:05:28.164Z,24.60
2018-01-14T20:07:56.696Z,22.20
2018-01-14T20:10:24.279Z,21.30
2018-01-14T20:12:51.842Z,22.33
2018-01-14T20:15:19.400Z,20.53
2018-01-14T20:17:47.107Z,17.13
2018-01-14T20:20:14.674Z,17.70
2018-01-14T20:22:42.180Z,16.80
2018-01-14T20:25:09.718Z,17.10
2018-01-14T20:27:37.464Z,16.90
2018-01-14T20:30:05.305Z,15.93
2018-01-14T20:32:33.659Z,18.30
2018-01-14T20:35:01.219Z,17.40
2018-01-14T20:37:28.794Z,16.93
2018-01-14T20:39:56.367Z,17.83
2018-01-14T20:42:25.728Z,14.77
2018-01-14T20:44:54.980Z,19.47
2018-01-14T20:47:22.857Z,16.90
2018-01-14T20:49:51.330Z,17.77
2018-01-14T20:52:18.947Z,17.70
2018-01-14T20:54:46.495Z,17.93
2018-01-14T20:57:14.017Z,17.00
2018-01-14T20:59:41.596Z,18.43
2018-01-14T21:02:09.136Z,18.43
2018-01-14T21:04:36.692Z,16.50
2018-01-14T21:07:04.293Z,18.50
2018-01-14T21:09:31.935Z,16.87
2018-01-14T21:11:59.460Z,16.70
2018-01-14T21:14:27.023Z,17.10
2018-01-14T21:16:54.545Z,19.47
2018-01-14T21:19:22.077Z,16.90
2018-01-14T21:21:50.406Z,15.93
2018-01-14T21:24:17.932Z,16.30
2018-01-14T21:26:46.247Z,15.83
2018-01-14T21:29:13.772Z,16.47
2018-01-14T21:31:42.130Z,16.37
2018-01-14T21:34:09.663Z,15.47
2018-01-14T21:36:37.165Z,16.17
2018-01-14T21:39:04.697Z,15.07
2018-01-14T21:41:33.029Z,13.60
2018-01-14T21:44:00.576Z,16.70
2018-01-14T21:46:28.107Z,15.33
2018-01-14T21:48:55.726Z,15.90
2018-01-14T21:51:23.468Z,17.93
2018-01-14T21:53:51.082Z,14.60
2018-01-14T21:56:18.568Z,16.93
2018-01-14T21:58:46.105Z,17.80
2018-01-14T22:01:13.635Z,18.60
2018-01-14T22:03:41.267Z,17.97
2018-01-14T22:06:08.812Z,19.33
2018-01-14T22:08:36.402Z,18.27
2018-01-14T22:11:03.934Z,16.00
2018-01-14T22:13:32.272Z,15.63
2018-01-14T22:15:59.784Z,16.93
2018-01-14T22:18:28.118Z,18.40
2018-01-14T22:20:55.664Z,17.47
2018-01-14T22:23:23.907Z,17.67
2018-01-14T22:25:51.391Z,17.17
2018-01-14T22:28:18.927Z,17.47
2018-01-14T22:30:46.463Z,17.63
2018-01-14T22:33:14.778Z,17.03
2018-01-14T22:35:42.345Z,16.87
2018-01-14T22:38:09.925Z,17.83
2018-01-14T22:40:37.443Z,17.27
2018-01-14T22:43:04.935Z,16.40
2018-01-14T22:45:33.180Z,16.43
2018-01-14T22:48:00.805Z,17.67
2018-01-14T22:50:28.344Z,16.00
2018-01-14T22:52:55.877Z,16.90
2018-01-14T22:55:23.394Z,15.63
2018-01-14T22:57:51.777Z,17.53
2018-01-14T23:00:19.303Z,16.80
2018-01-14T23:02:46.853Z,15.63
2018-01-14T23:05:14.382Z,14.93
2018-01-14T23:07:41.864Z,15.20
2018-01-14T23:10:10.116Z,15.43
2018-01-14T23:12:37.658Z,15.93
2018-01-14T23:15:07.956Z,15.40
2018-01-14T23:17:36.274Z,16.50
2018-01-14T23:20:03.763Z,15.73
2018-01-14T23:22:31.239Z,15.07
2018-01-14T23:24:58.743Z,15.63
2018-01-14T23:27:26.319Z,16.60
2018-01-14T23:29:53.884Z,16.57
2018-01-14T23:32:21.369Z,15.27
2018-01-14T23:34:49.615Z,16.47
2018-01-14T23:37:17.217Z,15.07
2018-01-14T23:39:44.792Z,16.43
2018-01-14T23:42:13.045Z,16.03
2018-01-14T23:44:40.532Z,17.13
2018-01-14T23:47:08.003Z,16.63
2018-01-14T23:49:35.488Z,15.60
2018-01-14T23:52:03.047Z,16.97
2018-01-14T23:54:30.626Z,17.77
2018-01-14T23:56:58.429Z,17.13
2018-01-14T23:59:25.932Z,17.93
